Time;durP1;ratioP1;P1;durP2;ratioP2;P2;SDS_P1;SDS_P2;PMS_P1;PMS_P2;Temp;Humidity;BMP_temperature;BMP_pressure;BME280_temperature;BME280_humidity;BME280_pressure;Samples;Min_cycle;Max_cycle;Signal;HPM_P1;HPM_P2
2022/05/17 00:00:26;;;;;;;;;5.50;4.25;;;;;;;;5084578;27;61974;-83
2022/05/17 00:02:52;;;;;;;;;4.50;3.75;;;;;;;;5084254;27;61830;-83
2022/05/17 00:05:17;;;;;;;;;7.00;3.25;;;;;;;;5084952;27;61798;-83
2022/05/17 00:07:43;;;;;;;;;4.50;3.00;;;;;;;;5102394;27;61669;-83
2022/05/17 00:10:08;;;;;;;;;4.00;3.50;;;;;;;;5102699;27;61802;-83
2022/05/17 00:12:34;;;;;;;;;5.50;3.00;;;;;;;;5102829;27;61774;-82
2022/05/17 00:14:59;;;;;;;;;2.25;2.25;;;;;;;;5102807;27;62027;-83
2022/05/17 00:17:25;;;;;;;;;2.50;2.50;;;;;;;;5102229;27;61679;-83
2022/05/17 00:19:50;;;;;;;;;6.75;4.00;;;;;;;;5102628;27;61771;-83
2022/05/17 00:22:15;;;;;;;;;3.75;3.00;;;;;;;;5084080;27;61773;-81
2022/05/17 00:24:40;;;;;;;;;1.25;1.25;;;;;;;;5103032;27;61909;-83
2022/05/17 00:27:06;;;;;;;;;4.50;2.00;;;;;;;;5101564;27;61794;-83
2022/05/17 00:29:31;;;;;;;;;1.00;1.00;;;;;;;;5084467;27;61798;-83
2022/05/17 00:31:57;;;;;;;;;4.00;3.00;;;;;;;;5102088;27;61866;-83
2022/05/17 00:34:24;;;;;;;;;2.25;1.50;;;;;;;;5103249;27;61748;-83
2022/05/17 00:36:49;;;;;;;;;2.50;2.50;;;;;;;;5083635;27;63869;-82
2022/05/17 00:39:14;;;;;;;;;5.25;2.00;;;;;;;;5083973;27;61767;-83
2022/05/17 00:41:40;;;;;;;;;1.00;1.00;;;;;;;;5102613;27;61886;-81
2022/05/17 00:47:04;;;;;;;;;3.00;2.00;;;;;;;;5102115;27;61794;-83
2022/05/17 00:49:32;;;;;;;;;3.25;3.00;;;;;;;;5102462;27;61832;-83
2022/05/17 00:52:05;;;;;;;;;1.25;1.25;;;;;;;;5102294;27;62069;-83
2022/05/17 00:54:31;;;;;;;;;1.00;1.00;;;;;;;;5102675;27;61956;-83
2022/05/17 00:57:06;;;;;;;;;1.50;1.50;;;;;;;;5082937;27;63514;-82
2022/05/17 00:59:31;;;;;;;;;2.25;2.25;;;;;;;;5102393;27;61692;-83
2022/05/17 01:01:57;;;;;;;;;2.75;2.75;;;;;;;;5102278;27;61679;-84
2022/05/17 01:04:23;;;;;;;;;2.00;2.00;;;;;;;;5083770;27;61781;-83
2022/05/17 01:06:56;;;;;;;;;2.00;1.75;;;;;;;;5083075;27;64026;-83
2022/05/17 01:09:22;;;;;;;;;1.50;1.25;;;;;;;;5101888;27;61796;-83
2022/05/17 01:11:49;;;;;;;;;3.00;1.25;;;;;;;;5083514;27;61997;-83
2022/05/17 01:16:59;;;;;;;;;3.00;3.00;;;;;;;;5101540;27;62302;-82
2022/05/17 01:19:25;;;;;;;;;2.75;1.50;;;;;;;;5083382;27;61737;-83
2022/05/17 01:21:50;;;;;;;;;3.00;2.00;;;;;;;;5083755;27;61861;-82
2022/05/17 01:24:15;;;;;;;;;1.50;1.50;;;;;;;;5102210;27;61833;-83
2022/05/17 01:26:42;;;;;;;;;3.25;2.25;;;;;;;;5101320;27;61922;-83
2022/05/17 01:29:08;;;;;;;;;1.00;1.00;;;;;;;;5101917;27;61982;-83
2022/05/17 01:31:35;;;;;;;;;2.75;2.75;;;;;;;;5101978;27;61957;-82
2022/05/17 01:34:00;;;;;;;;;3.75;0.75;;;;;;;;5083610;27;61921;-83
2022/05/17 01:36:26;;;;;;;;;0.50;0.50;;;;;;;;5082545;27;64884;-82
2022/05/17 01:38:51;;;;;;;;;1.50;1.50;;;;;;;;5101654;27;61826;-83
2022/05/17 01:41:20;;;;;;;;;1.00;1.00;;;;;;;;5101255;27;61713;-82
2022/05/17 01:43:53;;;;;;;;;1.00;1.00;;;;;;;;5083507;27;62035;-83
2022/05/17 01:46:18;;;;;;;;;1.00;1.00;;;;;;;;5081846;27;64672;-82
2022/05/17 01:48:44;;;;;;;;;1.75;1.75;;;;;;;;5082664;27;61915;-83
2022/05/17 01:51:10;;;;;;;;;2.00;2.00;;;;;;;;5101035;27;62121;-81
2022/05/17 01:53:36;;;;;;;;;3.00;2.00;;;;;;;;5101764;27;61999;-82
2022/05/17 01:56:02;;;;;;;;;2.00;2.00;;;;;;;;5100329;27;61900;-83
2022/05/17 01:58:28;;;;;;;;;3.00;1.25;;;;;;;;5082595;27;61920;-83
2022/05/17 02:00:53;;;;;;;;;1.75;1.00;;;;;;;;5101165;27;62011;-82
2022/05/17 02:03:19;;;;;;;;;2.25;1.00;;;;;;;;5100973;27;62097;-82
2022/05/17 02:05:44;;;;;;;;;3.25;2.25;;;;;;;;5100774;27;61768;-82
2022/05/17 02:08:09;;;;;;;;;2.00;2.00;;;;;;;;5082820;27;61712;-83
2022/05/17 02:10:35;;;;;;;;;2.50;1.50;;;;;;;;5101099;27;61643;-83
2022/05/17 02:13:00;;;;;;;;;2.50;1.00;;;;;;;;5082865;27;62119;-83
2022/05/17 02:15:25;;;;;;;;;1.00;1.00;;;;;;;;5101940;27;62639;-80
2022/05/17 02:17:51;;;;;;;;;0.75;0.75;;;;;;;;5109399;27;61635;-83
2022/05/17 02:20:16;;;;;;;;;1.00;1.00;;;;;;;;5103623;27;61924;-82
2022/05/17 02:22:42;;;;;;;;;0.67;0.67;;;;;;;;5101665;27;61616;-83
2022/05/17 02:25:08;;;;;;;;;3.00;2.00;;;;;;;;5100805;27;61942;-83
2022/05/17 02:27:33;;;;;;;;;0.50;0.50;;;;;;;;5082699;27;61869;-83
2022/05/17 02:29:59;;;;;;;;;1.50;1.50;;;;;;;;5101375;27;61752;-82
2022/05/17 02:32:25;;;;;;;;;2.75;1.00;;;;;;;;5082626;27;61986;-83
2022/05/17 02:34:51;;;;;;;;;1.00;1.00;;;;;;;;5100770;27;61885;-82
2022/05/17 02:37:17;;;;;;;;;1.00;1.00;;;;;;;;5082770;27;62117;-82
2022/05/17 02:39:42;;;;;;;;;1.00;1.00;;;;;;;;5082487;27;61864;-83
2022/05/17 02:42:09;;;;;;;;;3.75;2.00;;;;;;;;5100977;27;62271;-82
2022/05/17 02:44:34;;;;;;;;;0.25;0.25;;;;;;;;5082152;27;63847;-82
2022/05/17 02:47:04;;;;;;;;;1.00;1.00;;;;;;;;5100641;27;61954;-83
2022/05/17 02:49:29;;;;;;;;;2.00;1.00;;;;;;;;5100908;27;61818;-83
2022/05/17 02:51:54;;;;;;;;;2.25;1.50;;;;;;;;5101524;27;61869;-83
2022/05/17 02:54:20;;;;;;;;;1.00;1.00;;;;;;;;5102093;27;62049;-83
2022/05/17 02:56:46;;;;;;;;;1.25;1.00;;;;;;;;5104432;27;61942;-83
2022/05/17 02:59:17;;;;;;;;;2.00;2.00;;;;;;;;5104666;27;62205;-83
2022/05/17 03:01:42;;;;;;;;;3.00;1.50;;;;;;;;5086031;27;61789;-83
2022/05/17 03:04:08;;;;;;;;;2.50;0.50;;;;;;;;5104279;27;61884;-83
2022/05/17 03:06:33;;;;;;;;;2.00;2.00;;;;;;;;5104531;27;62088;-83
2022/05/17 03:08:58;;;;;;;;;2.00;2.00;;;;;;;;5086000;27;62253;-83
2022/05/17 03:11:23;;;;;;;;;1.00;1.00;;;;;;;;5104602;27;61963;-83
2022/05/17 03:13:49;;;;;;;;;1.25;1.25;;;;;;;;5103774;27;61877;-83
2022/05/17 03:16:15;;;;;;;;;3.00;1.25;;;;;;;;5104029;27;62051;-83
2022/05/17 03:18:41;;;;;;;;;5.25;5.25;;;;;;;;5104548;27;61893;-83
2022/05/17 03:21:06;;;;;;;;;3.75;3.75;;;;;;;;5104677;27;61842;-83
2022/05/17 03:23:32;;;;;;;;;4.00;3.00;;;;;;;;5103513;27;63122;-83
2022/05/17 03:25:57;;;;;;;;;3.00;3.00;;;;;;;;5104351;27;61819;-82
2022/05/17 03:28:23;;;;;;;;;3.00;2.00;;;;;;;;5104365;27;61866;-83
2022/05/17 03:30:48;;;;;;;;;4.25;4.25;;;;;;;;5103672;27;62117;-83
2022/05/17 03:33:13;;;;;;;;;3.00;2.00;;;;;;;;5103213;27;61910;-83
2022/05/17 03:35:38;;;;;;;;;2.00;2.00;;;;;;;;5085179;27;62056;-83
2022/05/17 03:38:04;;;;;;;;;3.00;2.00;;;;;;;;5103831;27;61777;-83
2022/05/17 03:40:29;;;;;;;;;2.00;1.00;;;;;;;;5104227;27;61968;-83
2022/05/17 03:42:54;;;;;;;;;2.50;1.50;;;;;;;;5084000;27;64626;-83
2022/05/17 03:45:20;;;;;;;;;3.00;1.50;;;;;;;;5103732;27;61767;-83
2022/05/17 03:47:45;;;;;;;;;1.25;1.25;;;;;;;;5084887;27;61781;-83
2022/05/17 03:50:11;;;;;;;;;1.50;1.25;;;;;;;;5103645;27;62052;-83
2022/05/17 03:52:36;;;;;;;;;4.50;2.25;;;;;;;;5102741;27;62455;-83
2022/05/17 03:55:03;;;;;;;;;2.00;2.00;;;;;;;;5085256;27;61994;-83
2022/05/17 03:57:28;;;;;;;;;1.00;1.00;;;;;;;;5103294;27;61835;-83
2022/05/17 03:59:54;;;;;;;;;2.75;1.75;;;;;;;;5103270;27;61907;-83
2022/05/17 04:02:20;;;;;;;;;1.50;1.50;;;;;;;;5103045;27;61961;-83
2022/05/17 04:04:46;;;;;;;;;3.00;1.25;;;;;;;;5084654;27;62039;-83
2022/05/17 04:07:11;;;;;;;;;3.00;2.00;;;;;;;;5114098;27;61869;-83
2022/05/17 04:09:36;;;;;;;;;1.00;1.00;;;;;;;;5123961;27;61927;-83
2022/05/17 04:12:03;;;;;;;;;1.75;1.75;;;;;;;;5123355;27;62001;-83
2022/05/17 04:14:28;;;;;;;;;2.00;2.00;;;;;;;;5123893;27;61948;-83
2022/05/17 04:16:54;;;;;;;;;1.50;0.00;;;;;;;;5104970;27;61863;-83
2022/05/17 04:19:19;;;;;;;;;3.00;2.00;;;;;;;;5124185;27;61812;-83
2022/05/17 04:21:44;;;;;;;;;3.50;3.50;;;;;;;;5123158;27;61994;-83
2022/05/17 04:24:10;;;;;;;;;4.00;3.00;;;;;;;;5123837;27;62177;-83
2022/05/17 04:26:36;;;;;;;;;2.00;1.00;;;;;;;;5105141;27;61838;-83
2022/05/17 04:29:02;;;;;;;;;3.25;2.00;;;;;;;;5104840;27;61842;-83
2022/05/17 04:31:27;;;;;;;;;1.50;1.50;;;;;;;;5123268;27;61836;-83
2022/05/17 04:33:52;;;;;;;;;3.50;3.50;;;;;;;;5104965;27;62072;-83
2022/05/17 04:36:18;;;;;;;;;2.50;1.00;;;;;;;;5123396;27;61689;-83
2022/05/17 04:38:43;;;;;;;;;2.00;2.00;;;;;;;;5123742;27;61882;-83
2022/05/17 04:41:08;;;;;;;;;2.00;2.00;;;;;;;;5122274;27;61689;-82
2022/05/17 04:43:34;;;;;;;;;3.75;2.00;;;;;;;;5123333;27;61824;-84
2022/05/17 04:45:59;;;;;;;;;2.00;2.00;;;;;;;;5123274;27;61833;-83
2022/05/17 04:48:24;;;;;;;;;2.75;1.50;;;;;;;;5123302;27;61750;-83
2022/05/17 04:50:52;;;;;;;;;4.00;2.00;;;;;;;;5122378;27;61710;-83
2022/05/17 04:53:18;;;;;;;;;2.75;2.75;;;;;;;;5123379;27;61870;-83
2022/05/17 04:55:44;;;;;;;;;2.50;2.50;;;;;;;;5123688;27;62284;-84
2022/05/17 04:58:09;;;;;;;;;4.75;2.25;;;;;;;;5090212;27;62156;-82
2022/05/17 05:00:34;;;;;;;;;1.00;1.00;;;;;;;;5101975;27;61794;-83
2022/05/17 05:03:00;;;;;;;;;1.00;1.00;;;;;;;;5119124;27;61711;-82
2022/05/17 05:11:11;;;;;;;;;3.00;3.00;;;;;;;;4941003;25;61724;-76
2022/05/17 05:13:36;;;;;;;;;3.25;2.00;;;;;;;;5121629;27;61968;-77
2022/05/17 05:16:01;;;;;;;;;2.75;2.00;;;;;;;;5123772;27;61676;-76
2022/05/17 05:18:27;;;;;;;;;2.25;2.25;;;;;;;;5122742;27;61814;-76
2022/05/17 05:21:01;;;;;;;;;5.00;3.00;;;;;;;;5123283;27;61911;-77
2022/05/17 05:23:27;;;;;;;;;6.50;4.00;;;;;;;;5123151;27;61873;-76
2022/05/17 05:25:57;;;;;;;;;4.50;4.25;;;;;;;;5120442;27;62175;-76
2022/05/17 05:28:22;;;;;;;;;5.75;3.00;;;;;;;;5121297;27;61966;-75
2022/05/17 05:30:47;;;;;;;;;4.50;3.00;;;;;;;;5121428;27;61781;-76
2022/05/17 05:33:13;;;;;;;;;5.75;3.75;;;;;;;;5120274;27;62206;-76
2022/05/17 05:35:38;;;;;;;;;8.75;5.00;;;;;;;;5122252;27;61945;-80
2022/05/17 05:38:03;;;;;;;;;6.75;4.00;;;;;;;;5121729;27;61771;-80
2022/05/17 05:40:29;;;;;;;;;4.25;4.25;;;;;;;;5119597;27;63958;-75
2022/05/17 05:42:54;;;;;;;;;5.25;5.25;;;;;;;;5121375;27;62018;-76
2022/05/17 05:45:20;;;;;;;;;5.25;5.00;;;;;;;;5121454;27;61691;-82
2022/05/17 05:47:45;;;;;;;;;9.00;7.00;;;;;;;;5121644;27;61861;-83
2022/05/17 05:50:11;;;;;;;;;7.25;5.75;;;;;;;;5121488;27;62970;-82
2022/05/17 05:52:37;;;;;;;;;7.75;6.75;;;;;;;;5119444;27;61710;-76
2022/05/17 05:55:03;;;;;;;;;9.25;8.25;;;;;;;;5119593;27;61847;-75
2022/05/17 05:57:28;;;;;;;;;12.75;9.50;;;;;;;;5121799;27;62786;-76
2022/05/17 05:59:53;;;;;;;;;7.00;6.00;;;;;;;;5119553;27;63734;-77
2022/05/17 06:02:19;;;;;;;;;6.50;6.25;;;;;;;;5119976;27;61937;-76
2022/05/17 06:04:44;;;;;;;;;8.75;8.75;;;;;;;;5122448;27;61856;-76
2022/05/17 06:07:09;;;;;;;;;7.00;6.00;;;;;;;;5122286;27;62188;-76
2022/05/17 06:09:35;;;;;;;;;6.00;5.00;;;;;;;;5119890;27;61998;-75
2022/05/17 06:12:00;;;;;;;;;9.00;8.00;;;;;;;;5121353;27;62221;-76
2022/05/17 06:14:27;;;;;;;;;10.25;6.25;;;;;;;;5122259;27;61817;-76
2022/05/17 06:16:53;;;;;;;;;5.75;5.75;;;;;;;;5123123;27;61821;-75
2022/05/17 06:19:20;;;;;;;;;8.50;7.00;;;;;;;;5121893;27;62687;-76
2022/05/17 06:21:45;;;;;;;;;6.33;4.67;;;;;;;;5122177;27;62397;-76
2022/05/17 06:24:10;;;;;;;;;5.33;5.33;;;;;;;;5122883;27;62743;-75
2022/05/17 06:26:36;;;;;;;;;8.50;6.75;;;;;;;;5122338;27;62100;-75
2022/05/17 06:29:02;;;;;;;;;7.75;5.00;;;;;;;;5123000;27;62416;-75
2022/05/17 06:31:27;;;;;;;;;6.00;5.25;;;;;;;;5125918;27;61802;-78
2022/05/17 06:33:53;;;;;;;;;5.00;4.00;;;;;;;;5126264;27;62127;-75
2022/05/17 06:36:18;;;;;;;;;6.33;4.00;;;;;;;;5124418;27;62399;-76
2022/05/17 06:38:43;;;;;;;;;6.75;5.25;;;;;;;;5123705;27;62067;-76
2022/05/17 06:41:08;;;;;;;;;5.00;4.00;;;;;;;;5122737;27;61816;-75
2022/05/17 06:43:34;;;;;;;;;3.33;3.00;;;;;;;;5122771;27;61884;-75
2022/05/17 06:46:03;;;;;;;;;3.00;3.00;;;;;;;;5123874;27;61867;-75
2022/05/17 06:48:29;;;;;;;;;3.00;3.00;;;;;;;;5124208;27;61989;-75
2022/05/17 06:51:00;;;;;;;;;3.00;2.00;;;;;;;;5122505;27;61961;-74
2022/05/17 06:53:26;;;;;;;;;6.00;3.67;;;;;;;;5124634;27;63007;-74
2022/05/17 06:55:51;;;;;;;;;3.00;3.00;;;;;;;;5124760;27;61884;-75
2022/05/17 06:58:16;;;;;;;;;3.00;3.00;;;;;;;;5122398;27;62132;-75
2022/05/17 07:00:42;;;;;;;;;3.00;2.00;;;;;;;;5123119;27;61823;-75
2022/05/17 07:03:07;;;;;;;;;4.00;2.00;;;;;;;;5122945;27;62064;-75
2022/05/17 07:05:32;;;;;;;;;5.67;3.00;;;;;;;;5123419;27;61828;-74
2022/05/17 07:08:01;;;;;;;;;7.00;3.33;;;;;;;;5124430;27;62835;-75
2022/05/17 07:13:13;;;;;;;;;2.67;2.00;;;;;;;;5124921;27;61886;-75
2022/05/17 07:15:49;;;;;;;;;3.00;3.00;;;;;;;;5125939;27;61915;-75
2022/05/17 07:18:18;;;;;;;;;3.00;3.00;;;;;;;;5122808;27;64662;-75
2022/05/17 07:20:44;;;;;;;;;3.33;2.00;;;;;;;;5124698;27;61713;-75
2022/05/17 07:23:10;;;;;;;;;4.33;3.00;;;;;;;;5122695;27;61940;-76
2022/05/17 07:25:36;;;;;;;;;6.00;1.67;;;;;;;;5123817;27;61917;-75
2022/05/17 07:28:01;;;;;;;;;1.67;1.67;;;;;;;;5122999;27;61894;-75
2022/05/17 07:30:27;;;;;;;;;4.67;3.00;;;;;;;;5124323;27;61962;-75
2022/05/17 07:32:52;;;;;;;;;2.67;2.33;;;;;;;;5123657;27;61985;-75
2022/05/17 07:35:18;;;;;;;;;2.33;2.00;;;;;;;;5124956;27;61791;-74
2022/05/17 07:37:43;;;;;;;;;2.00;2.00;;;;;;;;5123762;27;61734;-74
2022/05/17 07:40:10;;;;;;;;;2.00;2.00;;;;;;;;5123728;27;61752;-75
2022/05/17 07:42:36;;;;;;;;;2.33;2.33;;;;;;;;5124819;27;62126;-74
2022/05/17 07:45:01;;;;;;;;;3.00;1.00;;;;;;;;5125463;27;62014;-75
2022/05/17 07:47:27;;;;;;;;;2.33;2.00;;;;;;;;5124413;27;61728;-74
2022/05/17 07:49:52;;;;;;;;;2.33;2.33;;;;;;;;5123519;27;61747;-76
2022/05/17 07:52:17;;;;;;;;;3.33;2.00;;;;;;;;5124608;27;62094;-76
2022/05/17 07:54:43;;;;;;;;;1.00;1.00;;;;;;;;5125677;27;61930;-76
2022/05/17 07:57:09;;;;;;;;;2.00;2.00;;;;;;;;5120231;27;62639;-76
2022/05/17 07:59:34;;;;;;;;;3.00;1.00;;;;;;;;5123447;27;61911;-76
2022/05/17 08:02:00;;;;;;;;;3.00;1.00;;;;;;;;5123018;27;61992;-76
2022/05/17 08:04:25;;;;;;;;;0.00;0.00;;;;;;;;5123753;27;62304;-75
2022/05/17 08:06:50;;;;;;;;;2.00;2.00;;;;;;;;5122257;27;63788;-75
2022/05/17 08:09:16;;;;;;;;;2.67;2.67;;;;;;;;5123675;27;61889;-74
2022/05/17 08:11:41;;;;;;;;;3.00;2.67;;;;;;;;5122208;27;62266;-75
2022/05/17 08:14:06;;;;;;;;;6.33;2.00;;;;;;;;5123284;27;61750;-75
2022/05/17 08:16:32;;;;;;;;;3.00;2.00;;;;;;;;5123418;27;61787;-75
2022/05/17 08:18:57;;;;;;;;;2.33;2.00;;;;;;;;5124156;27;62008;-75
2022/05/17 08:21:22;;;;;;;;;2.00;2.00;;;;;;;;5124243;27;62154;-75
2022/05/17 08:23:47;;;;;;;;;1.00;1.00;;;;;;;;5124518;27;61784;-75
2022/05/17 08:28:57;;;;;;;;;0.00;0.00;;;;;;;;5124769;27;62034;-75
2022/05/17 08:31:22;;;;;;;;;2.00;2.00;;;;;;;;5124651;27;61884;-75
2022/05/17 08:33:48;;;;;;;;;0.67;0.67;;;;;;;;5122991;27;61755;-75
2022/05/17 08:36:13;;;;;;;;;1.00;1.00;;;;;;;;5124029;27;62859;-75
2022/05/17 08:38:40;;;;;;;;;2.00;1.00;;;;;;;;5123999;27;61799;-75
2022/05/17 08:41:12;;;;;;;;;0.67;0.67;;;;;;;;5124528;27;61920;-75
2022/05/17 08:43:43;;;;;;;;;2.67;1.33;;;;;;;;5123792;27;61730;-75
2022/05/17 08:46:28;;;;;;;;;2.00;1.00;;;;;;;;5123664;27;61775;-75
2022/05/17 08:48:55;;;;;;;;;3.00;2.00;;;;;;;;5124062;27;61850;-75
2022/05/17 08:51:41;;;;;;;;;3.00;1.00;;;;;;;;5123672;27;63623;-75
2022/05/17 08:54:08;;;;;;;;;2.00;2.00;;;;;;;;5123842;27;61698;-75
2022/05/17 08:56:36;;;;;;;;;0.33;0.33;;;;;;;;5122819;27;62580;-75
2022/05/17 08:59:04;;;;;;;;;1.00;1.00;;;;;;;;5124049;27;61850;-75
2022/05/17 09:01:36;;;;;;;;;5.00;1.00;;;;;;;;5122045;27;61798;-75
2022/05/17 09:04:07;;;;;;;;;1.00;0.00;;;;;;;;5124041;27;62073;-75
2022/05/17 09:06:38;;;;;;;;;0.67;0.67;;;;;;;;5123006;27;61895;-75
2022/05/17 09:09:06;;;;;;;;;0.00;0.00;;;;;;;;5122088;27;61881;-75
2022/05/17 09:11:31;;;;;;;;;3.33;2.33;;;;;;;;5118979;27;61811;-75
2022/05/17 09:14:07;;;;;;;;;1.00;1.00;;;;;;;;5122318;27;61794;-75
2022/05/17 09:16:35;;;;;;;;;0.33;0.33;;;;;;;;5121395;27;62821;-75
2022/05/17 09:19:00;;;;;;;;;0.00;0.00;;;;;;;;5123971;27;61959;-75
2022/05/17 09:21:25;;;;;;;;;0.00;0.00;;;;;;;;5123833;27;61755;-75
2022/05/17 09:23:51;;;;;;;;;0.00;0.00;;;;;;;;5122591;27;62094;-74
2022/05/17 09:26:17;;;;;;;;;0.33;0.00;;;;;;;;5123328;27;62650;-74
2022/05/17 09:28:43;;;;;;;;;0.00;0.00;;;;;;;;5123555;27;63004;-74
2022/05/17 09:31:10;;;;;;;;;0.00;0.00;;;;;;;;5123462;27;62230;-74
2022/05/17 09:33:37;;;;;;;;;1.00;0.00;;;;;;;;5123634;27;61924;-74
2022/05/17 09:36:02;;;;;;;;;0.67;0.67;;;;;;;;5121569;27;62911;-74
2022/05/17 09:38:32;;;;;;;;;0.00;0.00;;;;;;;;5123144;27;61833;-74
2022/05/17 09:40:58;;;;;;;;;0.67;0.67;;;;;;;;5123730;27;61907;-75
2022/05/17 09:43:35;;;;;;;;;0.00;0.00;;;;;;;;5123097;27;61902;-74
2022/05/17 09:46:08;;;;;;;;;1.00;1.00;;;;;;;;5122586;27;61721;-74
2022/05/17 09:52:32;;;;;;;;;0.00;0.00;;;;;;;;5121999;27;61827;-74
2022/05/17 09:54:09;;;;;;;;;2.00;0.00;;;;;;;;5123397;27;61708;-74
2022/05/17 09:56:34;;;;;;;;;0.67;0.67;;;;;;;;5122315;27;62074;-74
2022/05/17 09:58:59;;;;;;;;;1.33;0.67;;;;;;;;5123133;27;61816;-74
2022/05/17 10:01:38;;;;;;;;;0.00;0.00;;;;;;;;5123121;27;61944;-74
2022/05/17 10:04:11;;;;;;;;;0.67;0.67;;;;;;;;5123581;27;62052;-78
2022/05/17 10:06:41;;;;;;;;;0.00;0.00;;;;;;;;5125888;27;62866;-76
2022/05/17 10:09:06;;;;;;;;;1.00;1.00;;;;;;;;5124911;27;63100;-76
2022/05/17 10:11:40;;;;;;;;;1.00;0.00;;;;;;;;5124228;27;62164;-75
2022/05/17 10:14:11;;;;;;;;;0.00;0.00;;;;;;;;5124253;27;61753;-75
2022/05/17 10:16:39;;;;;;;;;1.00;1.00;;;;;;;;5123760;27;65042;-76
2022/05/17 10:19:04;;;;;;;;;1.00;0.00;;;;;;;;5125705;27;61906;-75
2022/05/17 10:21:39;;;;;;;;;0.00;0.00;;;;;;;;5124960;27;61849;-75
2022/05/17 10:24:11;;;;;;;;;0.00;0.00;;;;;;;;5123985;27;62153;-75
2022/05/17 10:26:39;;;;;;;;;1.00;0.00;;;;;;;;5123544;27;63920;-75
2022/05/17 10:29:09;;;;;;;;;0.00;0.00;;;;;;;;5123732;27;62072;-74
2022/05/17 10:31:52;;;;;;;;;0.00;0.00;;;;;;;;5124655;27;61977;-75
2022/05/17 10:34:25;;;;;;;;;0.00;0.00;;;;;;;;5126880;27;61712;-75
2022/05/17 10:36:54;;;;;;;;;0.00;0.00;;;;;;;;5125525;27;61793;-74
2022/05/17 10:39:33;;;;;;;;;0.00;0.00;;;;;;;;5124457;27;61948;-74
2022/05/17 10:41:59;;;;;;;;;1.00;0.00;;;;;;;;5125687;27;61743;-74
2022/05/17 10:44:26;;;;;;;;;2.00;0.00;;;;;;;;5126076;27;61831;-74
2022/05/17 10:47:01;;;;;;;;;0.00;0.00;;;;;;;;5125681;27;61977;-74
2022/05/17 10:49:36;;;;;;;;;0.67;0.00;;;;;;;;5124992;27;61817;-74
2022/05/17 10:52:13;;;;;;;;;1.00;1.00;;;;;;;;5125851;27;61687;-74
2022/05/17 10:54:54;;;;;;;;;5.33;4.00;;;;;;;;5126444;27;61719;-74
2022/05/17 10:57:33;;;;;;;;;9.33;4.33;;;;;;;;5123577;27;63869;-74
2022/05/17 11:00:14;;;;;;;;;0.00;0.00;;;;;;;;5125970;27;61750;-74
2022/05/17 11:03:01;;;;;;;;;0.67;0.67;;;;;;;;5125967;27;61846;-75
2022/05/17 11:05:34;;;;;;;;;1.67;1.67;;;;;;;;5126372;27;61695;-74
2022/05/17 11:08:02;;;;;;;;;0.67;0.33;;;;;;;;5124927;27;62676;-74
2022/05/17 11:10:45;;;;;;;;;0.33;0.33;;;;;;;;5125407;27;61997;-74
2022/05/17 11:13:15;;;;;;;;;0.00;0.00;;;;;;;;5125051;27;62041;-74
2022/05/17 11:15:45;;;;;;;;;0.00;0.00;;;;;;;;5125532;27;61748;-74
2022/05/17 11:18:14;;;;;;;;;1.67;0.67;;;;;;;;5124595;27;61826;-73
2022/05/17 11:20:47;;;;;;;;;1.00;0.00;;;;;;;;5124588;27;61971;-78
2022/05/17 11:23:25;;;;;;;;;1.00;0.00;;;;;;;;5124547;27;61885;-76
2022/05/17 11:26:06;;;;;;;;;1.00;1.00;;;;;;;;5123542;27;62043;-75
2022/05/17 11:28:33;;;;;;;;;0.67;0.67;;;;;;;;5122136;27;62170;-75
2022/05/17 11:31:06;;;;;;;;;0.33;0.33;;;;;;;;5122385;27;61872;-74
2022/05/17 11:33:41;;;;;;;;;0.00;0.00;;;;;;;;5125162;27;61738;-75
2022/05/17 11:36:07;;;;;;;;;0.67;0.67;;;;;;;;5125715;27;61929;-75
2022/05/17 11:38:32;;;;;;;;;0.00;0.00;;;;;;;;5124479;27;62035;-74
2022/05/17 11:40:58;;;;;;;;;0.67;0.33;;;;;;;;5125001;27;61993;-75
2022/05/17 11:43:56;;;;;;;;;1.00;1.00;;;;;;;;5124385;27;62740;-74
2022/05/17 11:46:24;;;;;;;;;1.00;1.00;;;;;;;;5062348;27;61950;-74
2022/05/17 11:49:00;;;;;;;;;1.00;1.00;;;;;;;;5104100;27;62869;-74
2022/05/17 11:51:32;;;;;;;;;0.33;0.33;;;;;;;;5120026;27;61745;-74
2022/05/17 11:54:00;;;;;;;;;1.00;1.00;;;;;;;;5104671;27;62090;-74
2022/05/17 11:56:25;;;;;;;;;0.67;0.67;;;;;;;;5104156;27;62195;-74
2022/05/17 11:59:13;;;;;;;;;1.00;0.00;;;;;;;;5103622;27;61904;-74
2022/05/17 12:01:39;;;;;;;;;0.67;0.67;;;;;;;;5041006;28;61850;-74
2022/05/17 12:04:07;;;;;;;;;0.67;0.00;;;;;;;;5040688;28;61918;-74
2022/05/17 12:06:41;;;;;;;;;1.00;1.00;;;;;;;;5044246;28;61858;-74
2022/05/17 12:09:12;;;;;;;;;1.33;1.33;;;;;;;;5054499;28;63780;-74
2022/05/17 12:11:53;;;;;;;;;2.00;0.67;;;;;;;;5060335;28;62021;-74
2022/05/17 12:14:26;;;;;;;;;0.00;0.00;;;;;;;;5053634;28;62018;-74
2022/05/17 12:16:55;;;;;;;;;0.00;0.00;;;;;;;;5061195;28;61913;-74
2022/05/17 12:19:24;;;;;;;;;1.67;1.67;;;;;;;;5060056;28;62187;-75
2022/05/17 12:21:58;;;;;;;;;2.67;1.67;;;;;;;;5059175;28;62158;-74
2022/05/17 12:24:38;;;;;;;;;0.67;0.67;;;;;;;;5060040;28;61844;-74
2022/05/17 12:27:16;;;;;;;;;4.00;2.00;;;;;;;;5059537;28;61954;-74
2022/05/17 12:32:28;;;;;;;;;1.33;1.00;;;;;;;;5059439;28;61781;-75
2022/05/17 12:34:57;;;;;;;;;1.67;1.00;;;;;;;;5043444;28;61936;-74
2022/05/17 12:37:25;;;;;;;;;4.33;1.33;;;;;;;;5058299;28;62286;-75
2022/05/17 12:43:17;;;;;;;;;1.00;1.00;;;;;;;;5120486;27;62057;-74
2022/05/17 12:45:24;;;;;;;;;4.00;1.67;;;;;;;;5116710;27;61881;-74
2022/05/17 12:47:51;;;;;;;;;0.67;0.67;;;;;;;;5122724;27;61944;-74
2022/05/17 12:50:19;;;;;;;;;1.33;0.67;;;;;;;;5121761;27;62151;-75
2022/05/17 12:52:46;;;;;;;;;2.00;1.00;;;;;;;;5123195;27;61980;-74
2022/05/17 12:55:17;;;;;;;;;0.00;0.00;;;;;;;;5122495;27;61992;-75
2022/05/17 12:57:42;;;;;;;;;2.00;0.67;;;;;;;;5120417;27;61835;-75
2022/05/17 13:00:14;;;;;;;;;1.00;1.00;;;;;;;;5121152;27;63622;-75
2022/05/17 13:02:41;;;;;;;;;3.33;0.67;;;;;;;;5120650;27;62036;-74
2022/05/17 13:05:22;;;;;;;;;0.00;0.00;;;;;;;;5123655;27;61935;-74
2022/05/17 13:07:47;;;;;;;;;3.00;2.00;;;;;;;;5123763;27;61820;-75
2022/05/17 13:10:12;;;;;;;;;1.00;1.00;;;;;;;;5122188;27;62632;-75
2022/05/17 13:12:40;;;;;;;;;1.00;1.00;;;;;;;;5121315;27;61905;-75
2022/05/17 13:15:06;;;;;;;;;1.67;1.00;;;;;;;;5123987;27;61771;-74
2022/05/17 13:17:34;;;;;;;;;4.67;2.00;;;;;;;;5123842;27;61909;-75
2022/05/17 13:20:05;;;;;;;;;1.00;1.00;;;;;;;;5123349;27;61830;-75
2022/05/17 13:22:31;;;;;;;;;2.67;0.67;;;;;;;;5123044;27;61796;-75
2022/05/17 13:25:00;;;;;;;;;1.00;1.00;;;;;;;;5123585;27;61949;-75
2022/05/17 13:27:26;;;;;;;;;3.00;2.00;;;;;;;;5120005;27;61988;-75
2022/05/17 13:29:57;;;;;;;;;0.33;0.33;;;;;;;;5120784;27;64654;-74
2022/05/17 13:32:23;;;;;;;;;1.33;1.33;;;;;;;;5123273;27;61937;-75
2022/05/17 13:35:07;;;;;;;;;0.00;0.00;;;;;;;;5122894;27;61941;-75
2022/05/17 13:37:33;;;;;;;;;2.67;0.00;;;;;;;;5109789;27;61961;-74
2022/05/17 13:40:02;;;;;;;;;1.00;1.00;;;;;;;;5122679;27;61956;-74
2022/05/17 13:42:31;;;;;;;;;1.33;0.00;;;;;;;;5122783;27;61927;-74
2022/05/17 13:45:01;;;;;;;;;3.00;1.00;;;;;;;;5122724;27;62263;-75
2022/05/17 13:47:40;;;;;;;;;7.67;2.67;;;;;;;;5123327;27;61928;-75
2022/05/17 13:50:16;;;;;;;;;1.33;1.33;;;;;;;;5122946;27;61865;-75
2022/05/17 13:52:48;;;;;;;;;0.67;0.67;;;;;;;;5121358;27;61660;-75
2022/05/17 13:55:19;;;;;;;;;1.67;1.67;;;;;;;;5123382;27;61985;-75
2022/05/17 13:57:50;;;;;;;;;0.67;0.67;;;;;;;;5121631;27;61721;-75
2022/05/17 14:00:23;;;;;;;;;2.00;1.67;;;;;;;;5122816;27;62516;-75
2022/05/17 14:02:48;;;;;;;;;1.00;1.00;;;;;;;;5123127;27;61777;-75
2022/05/17 14:05:20;;;;;;;;;3.00;1.33;;;;;;;;5123321;27;61762;-75
2022/05/17 14:07:53;;;;;;;;;0.00;0.00;;;;;;;;5122719;27;61877;-75
2022/05/17 14:13:06;;;;;;;;;0.00;0.00;;;;;;;;5122652;27;62096;-75
2022/05/17 14:15:31;;;;;;;;;0.00;0.00;;;;;;;;5121361;27;61680;-75
2022/05/17 14:17:56;;;;;;;;;0.33;0.33;;;;;;;;5121235;27;61775;-75
2022/05/17 14:20:22;;;;;;;;;0.00;0.00;;;;;;;;5122247;27;61783;-76
2022/05/17 14:22:47;;;;;;;;;0.33;0.33;;;;;;;;5122780;27;61987;-76
2022/05/17 14:25:12;;;;;;;;;0.67;0.67;;;;;;;;5123280;27;62576;-77
2022/05/17 14:27:38;;;;;;;;;1.00;1.00;;;;;;;;5122674;27;61949;-75
2022/05/17 14:30:04;;;;;;;;;3.33;2.00;;;;;;;;5122436;27;62515;-75
2022/05/17 14:32:29;;;;;;;;;0.67;0.67;;;;;;;;5121405;27;62174;-75
2022/05/17 14:34:54;;;;;;;;;1.33;1.33;;;;;;;;5122780;27;62045;-75
2022/05/17 14:37:20;;;;;;;;;1.67;1.67;;;;;;;;5123172;27;61711;-79
2022/05/17 14:39:45;;;;;;;;;1.67;0.67;;;;;;;;5122150;27;62655;-75
2022/05/17 14:42:13;;;;;;;;;0.33;0.33;;;;;;;;5122652;27;61842;-75
2022/05/17 14:44:39;;;;;;;;;1.67;1.33;;;;;;;;5121013;27;62136;-75
2022/05/17 14:47:06;;;;;;;;;0.00;0.00;;;;;;;;5121396;27;61794;-76
2022/05/17 14:49:33;;;;;;;;;0.67;0.67;;;;;;;;5122191;27;62051;-76
2022/05/17 14:51:58;;;;;;;;;0.33;0.33;;;;;;;;5116777;27;61790;-76
2022/05/17 14:54:24;;;;;;;;;1.33;1.33;;;;;;;;5106909;27;61986;-75
2022/05/17 14:56:49;;;;;;;;;1.00;1.00;;;;;;;;5118119;27;61669;-76
2022/05/17 14:59:14;;;;;;;;;0.00;0.00;;;;;;;;5125250;27;61844;-76
2022/05/17 15:01:42;;;;;;;;;0.00;0.00;;;;;;;;5124285;27;61806;-76
2022/05/17 15:04:08;;;;;;;;;0.00;0.00;;;;;;;;5124041;27;62007;-75
2022/05/17 15:06:48;;;;;;;;;1.67;0.67;;;;;;;;5126142;27;62210;-75
2022/05/17 15:09:14;;;;;;;;;0.67;0.67;;;;;;;;5105394;27;61656;-75
2022/05/17 15:11:40;;;;;;;;;0.33;0.33;;;;;;;;5124575;27;61812;-76
2022/05/17 15:14:05;;;;;;;;;0.67;0.67;;;;;;;;5125010;27;61782;-76